Time;durP1;ratioP1;P1;durP2;ratioP2;P2;SDS_P1;SDS_P2;PMS_P1;PMS_P2;Temp;Humidity;BMP_temperature;BMP_pressure;BME280_temperature;BME280_humidity;BME280_pressure;Samples;Min_cycle;Max_cycle;Signal;HPM_P1;HPM_P2
2021/08/19 00:03:15;;;;;;;2.15;1.05;;;;;;;18.03;65.95;99733.75;10548538;28;20044;-73
2021/08/19 00:08:17;;;;;;;3.42;1.38;;;;;;;17.98;65.90;99731.41;10534524;28;20047;-72
2021/08/19 00:13:19;;;;;;;3.63;1.20;;;;;;;18.04;65.78;99736.31;10550293;28;20036;-71
2021/08/19 00:18:20;;;;;;;1.40;1.30;;;;;;;18.02;65.99;99732.91;10545718;28;20571;-72
2021/08/19 00:23:22;;;;;;;1.55;1.45;;;;;;;18.00;65.84;99736.63;10545475;28;20051;-71
2021/08/19 00:28:23;;;;;;;1.63;1.52;;;;;;;18.08;65.59;99742.28;10546073;28;20073;-71
2021/08/19 00:33:26;;;;;;;1.42;1.33;;;;;;;18.03;65.91;99734.59;10545540;28;20048;-71
2021/08/19 00:38:27;;;;;;;1.50;1.40;;;;;;;18.03;65.81;99726.63;10545890;28;20044;-71
2021/08/19 00:43:29;;;;;;;3.13;1.65;;;;;;;18.05;65.55;99714.06;10527275;28;20044;-71
2021/08/19 00:48:31;;;;;;;1.45;1.35;;;;;;;18.00;65.18;99716.19;10545173;28;20060;-71
2021/08/19 00:53:33;;;;;;;2.10;1.90;;;;;;;17.96;65.67;99721.81;10545241;28;20036;-71
2021/08/19 00:58:38;;;;;;;1.88;1.63;;;;;;;18.01;65.22;99719.69;10546296;28;20052;-71
2021/08/19 01:03:40;;;;;;;1.60;1.50;;;;;;;18.02;64.88;99714.28;10526971;28;20036;-71
2021/08/19 01:08:42;;;;;;;1.70;1.60;;;;;;;17.88;65.18;99722.31;10544546;28;20055;-72
2021/08/19 01:13:43;;;;;;;1.85;1.75;;;;;;;18.00;64.62;99721.50;10544741;28;20097;-71
2021/08/19 01:18:46;;;;;;;1.60;1.50;;;;;;;18.01;64.63;99739.16;10544184;28;20047;-71
2021/08/19 01:23:48;;;;;;;1.63;1.52;;;;;;;17.92;65.03;99733.59;10543940;28;20048;-71
2021/08/19 01:28:50;;;;;;;1.77;1.67;;;;;;;17.83;65.48;99737.72;10543573;28;20067;-72
2021/08/19 01:33:52;;;;;;;2.10;1.90;;;;;;;17.81;65.53;99740.50;10542926;28;20101;-71
2021/08/19 01:38:54;;;;;;;2.05;1.80;;;;;;;17.82;65.71;99744.88;10543104;28;20052;-71
2021/08/19 01:43:56;;;;;;;2.08;1.67;;;;;;;17.80;65.61;99745.94;10525464;28;20048;-71
2021/08/19 01:48:57;;;;;;;1.85;1.75;;;;;;;17.89;65.29;99743.50;10542771;28;20482;-71
2021/08/19 01:53:59;;;;;;;2.55;1.73;;;;;;;17.83;66.12;99751.03;10524398;28;20048;-72
2021/08/19 01:59:01;;;;;;;1.83;1.73;;;;;;;17.81;66.03;99752.94;10542693;28;20044;-72
2021/08/19 02:04:04;;;;;;;1.90;1.80;;;;;;;17.77;66.32;99762.94;10541800;28;20048;-71
2021/08/19 02:09:06;;;;;;;1.73;1.63;;;;;;;17.84;65.93;99752.72;10542155;28;20051;-71
2021/08/19 02:14:08;;;;;;;2.53;1.75;;;;;;;17.82;66.05;99749.31;10542340;28;20043;-71
2021/08/19 02:19:10;;;;;;;2.35;1.77;;;;;;;17.76;66.16;99733.78;10541756;28;20409;-71
2021/08/19 02:24:12;;;;;;;1.92;1.83;;;;;;;17.80;65.88;99740.63;10540774;28;20357;-71
2021/08/19 02:29:13;;;;;;;1.90;1.80;;;;;;;17.78;65.49;99737.19;10523108;28;20093;-71
2021/08/19 02:34:15;;;;;;;2.30;2.10;;;;;;;17.65;66.04;99737.09;10540883;28;20048;-71
2021/08/19 02:39:16;;;;;;;2.20;2.00;;;;;;;17.61;66.01;99738.25;10540425;28;20443;-71
2021/08/19 02:44:18;;;;;;;3.05;2.10;;;;;;;17.71;65.54;99730.53;10540185;28;20173;-71
2021/08/19 02:49:20;;;;;;;2.30;2.00;;;;;;;17.61;65.69;99724.97;10521598;28;20044;-71
2021/08/19 02:54:21;;;;;;;1.98;1.73;;;;;;;17.43;66.32;99727.03;10539844;28;20633;-71
2021/08/19 02:59:23;;;;;;;2.53;1.90;;;;;;;17.55;65.76;99725.38;10540117;28;20040;-72
2021/08/19 03:04:24;;;;;;;4.55;2.10;;;;;;;17.43;66.45;99726.19;10540048;28;20047;-71
2021/08/19 03:09:26;;;;;;;1.88;1.77;;;;;;;17.53;65.91;99725.50;10539762;28;20440;-71
2021/08/19 03:14:27;;;;;;;2.35;2.15;;;;;;;17.49;66.06;99716.03;10539671;28;20054;-71
2021/08/19 03:19:29;;;;;;;2.78;2.40;;;;;;;17.42;66.30;99721.81;10539390;28;20402;-71
2021/08/19 03:24:31;;;;;;;2.78;2.38;;;;;;;17.57;65.54;99712.84;10539669;28;20105;-70
2021/08/19 03:29:32;;;;;;;2.63;2.20;;;;;;;17.51;65.82;99703.47;10539853;28;20093;-71
2021/08/19 03:34:34;;;;;;;2.13;1.70;;;;;;;17.43;66.05;99700.47;10539591;28;20048;-71
2021/08/19 03:39:37;;;;;;;1.85;1.75;;;;;;;17.41;66.18;99705.03;10538064;28;20107;-71
2021/08/19 03:44:39;;;;;;;1.90;1.73;;;;;;;17.45;66.02;99708.34;10538734;28;20049;-71
2021/08/19 03:49:40;;;;;;;2.50;1.83;;;;;;;17.48;65.85;99708.13;10539073;28;20121;-70
2021/08/19 03:54:43;;;;;;;2.47;2.30;;;;;;;17.48;65.77;99713.44;10538587;28;20082;-71
2021/08/19 03:59:45;;;;;;;1.90;1.80;;;;;;;17.39;66.17;99706.91;10538398;28;20047;-71
2021/08/19 04:04:48;;;;;;;1.85;1.70;;;;;;;17.48;66.01;99708.13;10538554;28;20059;-71
2021/08/19 04:09:50;;;;;;;2.35;2.15;;;;;;;17.31;66.70;99711.88;10538637;28;20032;-71
2021/08/19 04:14:52;;;;;;;1.80;1.67;;;;;;;17.42;66.53;99720.00;10537949;28;20059;-72
2021/08/19 04:19:53;;;;;;;1.67;1.48;;;;;;;17.32;67.35;99718.91;10538326;28;20032;-71
2021/08/19 04:24:55;;;;;;;1.77;1.67;;;;;;;17.52;66.79;99721.13;10520159;28;20097;-71
2021/08/19 04:29:59;;;;;;;1.73;1.63;;;;;;;17.56;66.65;99722.63;10520266;28;20040;-71
2021/08/19 04:35:01;;;;;;;1.70;1.50;;;;;;;17.59;66.89;99721.59;10537785;28;20117;-71
2021/08/19 04:40:04;;;;;;;3.25;1.52;;;;;;;17.60;67.03;99717.97;10537535;28;20040;-71
2021/08/19 04:45:08;;;;;;;1.85;1.52;;;;;;;17.58;66.81;99734.03;10537887;28;20036;-70
2021/08/19 04:50:10;;;;;;;1.98;1.77;;;;;;;17.53;67.12;99724.63;10543266;28;20143;-70
2021/08/19 04:55:12;;;;;;;1.88;1.33;;;;;;;17.61;66.93;99735.59;10558837;22;20040;-73
2021/08/19 05:00:14;;;;;;;3.08;1.67;;;;;;;17.61;66.77;99733.78;10530255;28;20401;-74
2021/08/19 05:05:15;;;;;;;1.35;1.25;;;;;;;17.85;65.53;99738.50;10529049;28;20048;-75
2021/08/19 05:10:17;;;;;;;2.90;1.67;;;;;;;17.74;65.69;99736.53;10547712;28;20036;-73
2021/08/19 05:15:20;;;;;;;3.47;1.77;;;;;;;17.52;66.72;99738.88;10528564;28;20051;-74
2021/08/19 05:20:22;;;;;;;1.88;1.60;;;;;;;17.55;66.50;99747.50;10528583;28;20093;-74
2021/08/19 05:25:24;;;;;;;1.60;1.50;;;;;;;17.68;65.63;99744.91;10546677;28;20047;-74
2021/08/19 05:30:25;;;;;;;1.70;1.60;;;;;;;17.61;65.68;99744.44;10546173;28;20035;-73
2021/08/19 05:35:27;;;;;;;2.33;1.80;;;;;;;17.73;65.06;99750.75;10546279;28;20044;-72
2021/08/19 05:40:29;;;;;;;1.73;1.60;;;;;;;17.88;64.21;99747.13;10529606;28;20055;-72
2021/08/19 05:45:30;;;;;;;1.88;1.70;;;;;;;17.85;64.78;99757.13;10547648;28;20050;-71
2021/08/19 05:50:35;;;;;;;1.80;1.70;;;;;;;17.97;64.50;99753.63;10545999;28;20413;-71
2021/08/19 05:55:37;;;;;;;2.08;1.70;;;;;;;17.87;64.76;99756.03;10546167;28;20452;-72
2021/08/19 06:00:39;;;;;;;2.03;1.63;;;;;;;18.14;63.95;99761.31;10527000;28;20139;-72
2021/08/19 06:05:41;;;;;;;2.17;1.65;;;;;;;18.12;64.09;99757.06;10545952;28;20378;-72
2021/08/19 06:10:43;;;;;;;1.98;1.70;;;;;;;18.27;62.86;99761.34;10544654;28;20101;-72
2021/08/19 06:15:45;;;;;;;2.08;1.88;;;;;;;18.21;63.61;99759.09;10544388;28;20497;-71
2021/08/19 06:20:46;;;;;;;2.05;1.65;;;;;;;18.33;62.59;99760.09;10545983;28;20055;-72
2021/08/19 06:25:48;;;;;;;2.15;2.00;;;;;;;18.41;62.33;99758.59;10527338;28;20064;-71
2021/08/19 06:30:50;;;;;;;3.05;2.20;;;;;;;18.43;62.74;99757.66;10544396;28;20055;-72
2021/08/19 06:35:52;;;;;;;3.35;2.00;;;;;;;18.46;62.67;99757.41;10525630;28;20096;-72
2021/08/19 06:40:54;;;;;;;2.47;1.95;;;;;;;18.58;61.67;99770.75;10543567;28;20039;-71
2021/08/19 06:45:55;;;;;;;2.50;1.90;;;;;;;18.56;62.00;99767.34;10543384;28;20040;-73
2021/08/19 06:50:57;;;;;;;2.20;1.83;;;;;;;18.75;61.51;99768.75;10524950;28;20112;-72
2021/08/19 06:55:59;;;;;;;3.47;1.63;;;;;;;18.76;61.17;99758.00;10543320;28;20390;-71
2021/08/19 07:01:00;;;;;;;2.50;1.88;;;;;;;18.84;62.15;99752.13;10544258;28;20501;-71
2021/08/19 07:06:02;;;;;;;2.10;1.73;;;;;;;19.12;60.07;99751.00;10525709;28;20405;-72
2021/08/19 07:11:04;;;;;;;2.20;1.95;;;;;;;19.32;59.66;99760.25;10543209;28;20101;-73
2021/08/19 07:16:07;;;;;;;1.88;1.48;;;;;;;19.55;59.37;99759.44;10543343;28;20123;-74
2021/08/19 07:21:09;;;;;;;2.33;1.60;;;;;;;19.74;58.41;99758.09;10524509;28;20395;-75
2021/08/19 07:26:10;;;;;;;1.73;1.52;;;;;;;19.68;58.82;99755.91;10542427;28;20044;-73
2021/08/19 07:31:12;;;;;;;1.55;1.45;;;;;;;19.54;59.08;99771.06;10524760;28;20535;-75
2021/08/19 07:36:14;;;;;;;3.83;1.45;;;;;;;19.55;58.39;99775.41;10525435;28;20097;-72
2021/08/19 07:41:19;;;;;;;2.03;1.83;;;;;;;19.51;58.46;99768.59;10527317;28;20094;-72
2021/08/19 07:46:20;;;;;;;2.00;1.52;;;;;;;19.44;58.65;99769.19;10544692;28;20054;-73
2021/08/19 07:51:23;;;;;;;1.85;1.73;;;;;;;19.23;59.07;99767.09;10508727;28;20048;-72
2021/08/19 07:56:25;;;;;;;2.10;1.90;;;;;;;19.14;59.36;99779.28;10526355;28;20062;-73
2021/08/19 08:01:27;;;;;;;1.92;1.70;;;;;;;19.04;60.82;99777.38;10527018;28;20111;-72
2021/08/19 08:06:32;;;;;;;2.58;1.80;;;;;;;19.22;59.50;99777.88;10526193;28;20040;-73
2021/08/19 08:11:34;;;;;;;2.40;1.75;;;;;;;19.33;59.40;99784.13;10526993;28;20044;-74
2021/08/19 08:16:35;;;;;;;2.95;1.88;;;;;;;19.28;59.09;99783.59;10543655;28;20051;-72
2021/08/19 08:21:38;;;;;;;1.83;1.73;;;;;;;19.23;59.50;99780.44;10546662;28;20082;-72
2021/08/19 08:26:41;;;;;;;2.80;2.00;;;;;;;19.26;59.54;99782.03;10537824;28;20436;-73
2021/08/19 08:31:42;;;;;;;1.70;1.60;;;;;;;19.44;59.41;99794.03;10555870;28;20051;-72
2021/08/19 08:36:44;;;;;;;2.40;2.10;;;;;;;19.45;58.32;99793.06;10539490;28;20048;-73
2021/08/19 08:41:46;;;;;;;2.38;1.80;;;;;;;19.55;57.96;99807.41;10557262;28;20048;-72
2021/08/19 08:46:49;;;;;;;2.53;2.05;;;;;;;19.38;58.77;99807.78;10535391;28;20059;-74
2021/08/19 08:51:55;;;;;;;2.47;2.00;;;;;;;19.47;58.44;99812.44;10556275;28;20048;-74
2021/08/19 08:56:58;;;;;;;1.67;1.58;;;;;;;19.35;58.94;99814.19;10553836;28;20043;-74
2021/08/19 09:02:01;;;;;;;4.18;1.60;;;;;;;19.36;58.50;99815.91;10554529;28;20046;-75
2021/08/19 09:07:05;;;;;;;6.90;1.60;;;;;;;19.39;59.57;99822.84;10553241;28;20086;-74
2021/08/19 09:12:07;;;;;;;3.35;1.77;;;;;;;19.44;60.09;99825.16;10533206;28;20048;-74
2021/08/19 09:17:09;;;;;;;2.70;1.73;;;;;;;19.72;58.57;99826.72;10556583;28;20109;-73
2021/08/19 09:22:13;;;;;;;3.00;2.00;;;;;;;19.48;59.83;99821.28;10552405;28;20043;-73
2021/08/19 09:27:17;;;;;;;1.77;1.67;;;;;;;19.38;59.18;99831.75;10554281;28;20054;-74
2021/08/19 09:32:22;;;;;;;2.28;2.08;;;;;;;19.50;58.38;99830.88;10508284;28;20387;-74
2021/08/19 09:37:24;;;;;;;3.65;2.78;;;;;;;19.25;59.95;99849.59;10512108;28;20131;-74
2021/08/19 09:42:38;;;;;;;3.10;2.10;;;;;;;19.09;61.69;99849.81;10550000;28;20043;-73
2021/08/19 09:47:40;;;;;;;2.35;2.08;;;;;;;19.38;59.76;99837.94;10528471;28;20048;-73
2021/08/19 09:52:44;;;;;;;2.88;1.80;;;;;;;19.40;59.64;99827.19;10546034;28;20032;-72
2021/08/19 09:57:46;;;;;;;2.10;1.90;;;;;;;19.73;58.35;99828.41;10512803;28;20052;-74
2021/08/19 10:02:47;;;;;;;2.95;1.77;;;;;;;19.95;58.33;99830.34;10547778;28;20074;-74
2021/08/19 10:07:50;;;;;;;4.55;2.17;;;;;;;20.23;57.71;99824.69;10504482;28;20486;-74
2021/08/19 10:12:52;;;;;;;1.75;1.65;;;;;;;20.20;57.10;99827.56;10503459;28;20417;-74
2021/08/19 10:18:00;;;;;;;2.33;1.30;;;;;;;20.18;56.86;99829.47;10486448;28;20119;-74
2021/08/19 10:23:02;;;;;;;1.90;1.30;;;;;;;19.92;58.42;99831.41;10471960;28;20370;-74
2021/08/19 10:28:21;;;;;;;2.45;1.27;;;;;;;19.42;59.91;99826.09;10506411;28;20440;-76
2021/08/19 10:33:36;;;;;;;1.65;1.15;;;;;;;19.62;60.49;99826.53;10488030;28;20132;-74
2021/08/19 10:38:39;;;;;;;4.45;4.10;;;;;;;19.82;59.39;99825.91;10505085;28;20049;-74
2021/08/19 10:44:03;;;;;;;1.92;1.55;;;;;;;19.63;59.82;99829.06;10486323;28;20052;-73
2021/08/19 10:49:05;;;;;;;2.00;1.65;;;;;;;19.62;60.16;99830.03;10485883;28;20052;-73
2021/08/19 10:54:34;;;;;;;1.75;1.63;;;;;;;20.01;60.54;99830.75;10488006;22;20041;-70
2021/08/19 10:59:37;;;;;;;2.17;1.70;;;;;;;20.33;59.43;99825.69;10456975;28;20048;-70
2021/08/19 11:04:44;;;;;;;3.42;1.13;;;;;;;20.50;58.96;99836.94;10438940;28;20102;-69
2021/08/19 11:09:52;;;;;;;3.05;0.90;;;;;;;20.47;58.97;99819.28;10456708;28;20433;-70
2021/08/19 11:14:56;;;;;;;1.15;1.00;;;;;;;21.04;57.48;99822.94;10438669;28;20453;-71
2021/08/19 11:20:18;;;;;;;1.85;1.58;;;;;;;21.07;56.52;99828.03;10456545;28;20129;-70
2021/08/19 11:25:20;;;;;;;2.70;1.60;;;;;;;20.96;56.61;99830.72;10455883;28;20072;-71
2021/08/19 11:30:33;;;;;;;1.85;1.25;;;;;;;21.22;56.93;99828.66;10455851;28;20045;-71
2021/08/19 11:35:34;;;;;;;1.95;1.65;;;;;;;21.48;56.19;99815.91;10438031;28;20467;-70
2021/08/19 11:40:37;;;;;;;2.35;1.80;;;;;;;21.65;55.05;99829.63;10485550;28;20045;-71
2021/08/19 11:45:39;;;;;;;5.93;1.83;;;;;;;21.70;57.06;99839.13;10496884;28;20086;-70
2021/08/19 11:50:41;;;;;;;1.73;1.63;;;;;;;21.70;54.59;99833.75;10496602;28;20078;-71
2021/08/19 11:55:43;;;;;;;2.28;1.90;;;;;;;21.48;54.29;99845.34;10496523;28;20049;-70
2021/08/19 12:01:02;;;;;;;1.60;1.50;;;;;;;21.13;56.06;99846.28;10504476;28;20048;-71
2021/08/19 12:06:08;;;;;;;2.92;1.92;;;;;;;20.96;56.16;99844.06;10505484;28;20383;-71
2021/08/19 12:11:10;;;;;;;2.00;1.55;;;;;;;20.79;56.78;99851.56;10487724;28;20152;-71
2021/08/19 12:16:11;;;;;;;2.75;1.80;;;;;;;20.75;57.32;99851.91;10505121;28;20052;-71
2021/08/19 12:21:18;;;;;;;1.70;1.45;;;;;;;20.33;59.02;99859.53;10505065;28;20040;-70
2021/08/19 12:26:23;;;;;;;3.70;2.38;;;;;;;20.05;61.48;99860.72;10505188;28;20052;-70
2021/08/19 12:31:43;;;;;;;3.10;2.25;;;;;;;20.02;62.16;99866.28;10504365;28;20048;-70
2021/08/19 12:36:47;;;;;;;2.60;2.35;;;;;;;20.04;62.52;99875.03;10503972;28;20075;-70
2021/08/19 12:42:04;;;;;;;3.70;2.15;;;;;;;19.89;63.61;99880.53;10445287;28;20041;-70
2021/08/19 12:47:05;;;;;;;5.88;3.10;;;;;;;19.53;66.50;99869.81;10462656;28;20444;-70
2021/08/19 12:52:21;;;;;;;2.63;2.42;;;;;;;19.35;68.04;99867.50;10461739;28;20093;-70
2021/08/19 12:57:32;;;;;;;2.22;1.92;;;;;;;19.47;66.63;99868.41;10461752;28;20045;-70
2021/08/19 13:02:33;;;;;;;2.78;2.22;;;;;;;19.60;66.83;99863.06;10461670;28;20044;-70
2021/08/19 13:07:35;;;;;;;2.10;1.90;;;;;;;19.72;66.53;99864.03;10461020;28;20103;-70
2021/08/19 13:12:37;;;;;;;8.38;1.55;;;;;;;20.03;65.72;99862.66;10460964;28;20052;-70
2021/08/19 13:17:39;;;;;;;2.65;1.80;;;;;;;20.34;63.10;99861.22;10460638;28;20055;-70
2021/08/19 13:22:41;;;;;;;2.70;1.98;;;;;;;20.58;62.14;99858.53;10460311;28;20073;-71
2021/08/19 13:27:42;;;;;;;2.05;1.45;;;;;;;20.87;59.71;99859.84;10459976;28;20045;-70
2021/08/19 13:32:45;;;;;;;1.45;1.35;;;;;;;20.81;60.09;99864.81;10480774;28;20037;-70
2021/08/19 13:37:47;;;;;;;2.10;1.90;;;;;;;20.74;60.43;99868.91;10469223;28;20047;-71
2021/08/19 13:42:48;;;;;;;3.10;1.80;;;;;;;20.64;60.31;99872.28;10501202;28;20387;-70
2021/08/19 13:47:51;;;;;;;1.92;1.83;;;;;;;20.54;60.71;99879.31;10478818;28;20123;-70
2021/08/19 13:52:53;;;;;;;2.63;2.42;;;;;;;20.38;61.12;99884.06;10458840;28;20102;-70
2021/08/19 13:57:56;;;;;;;2.47;2.22;;;;;;;20.20;61.98;99877.44;10439095;28;20490;-70
2021/08/19 14:02:58;;;;;;;2.33;2.10;;;;;;;19.93;64.35;99880.31;10444982;28;20166;-71
2021/08/19 14:08:00;;;;;;;2.33;2.17;;;;;;;19.97;64.57;99879.97;10498383;28;20409;-70
2021/08/19 14:13:01;;;;;;;2.40;2.20;;;;;;;20.12;63.06;99876.16;10480366;28;20037;-71
2021/08/19 14:18:03;;;;;;;3.45;2.20;;;;;;;20.22;62.86;99864.81;10479559;28;20102;-70
2021/08/19 14:23:04;;;;;;;1.75;1.63;;;;;;;20.25;62.81;99859.25;10497334;28;20548;-71
2021/08/19 14:28:07;;;;;;;1.65;1.55;;;;;;;20.50;61.61;99860.97;10462826;28;20394;-72
2021/08/19 14:33:09;;;;;;;1.50;1.40;;;;;;;20.50;60.17;99864.50;10455779;28;20045;-71
2021/08/19 14:38:10;;;;;;;2.22;1.70;;;;;;;20.46;60.28;99862.13;10455477;28;20095;-71
2021/08/19 14:43:13;;;;;;;1.67;1.50;;;;;;;20.50;60.26;99867.16;10456096;28;20494;-69
2021/08/19 14:48:16;;;;;;;2.05;1.80;;;;;;;20.49;60.46;99868.09;10456508;28;20044;-69
2021/08/19 14:53:18;;;;;;;2.72;1.85;;;;;;;20.40;60.36;99866.09;10455260;28;20052;-70
2021/08/19 14:58:19;;;;;;;2.30;1.58;;;;;;;20.70;59.53;99870.13;10419599;28;1086767;-70
2021/08/19 15:03:21;;;;;;;2.47;1.85;;;;;;;20.77;58.03;99877.56;10457549;28;20045;-70
2021/08/19 15:08:22;;;;;;;3.30;1.95;;;;;;;20.68;58.58;99866.72;10457533;28;20490;-71
2021/08/19 15:13:24;;;;;;;2.22;2.03;;;;;;;20.50;59.84;99869.81;10438419;28;20086;-70
2021/08/19 15:18:29;;;;;;;7.40;2.58;;;;;;;20.53;59.31;99872.25;10456358;28;20443;-69
2021/08/19 15:23:35;;;;;;;3.17;2.08;;;;;;;20.45;59.53;99866.59;10455105;28;20099;-71
2021/08/19 15:28:37;;;;;;;3.22;1.75;;;;;;;20.36;60.42;99873.50;10457088;28;20059;-71
2021/08/19 15:33:39;;;;;;;2.20;2.00;;;;;;;20.51;59.97;99868.00;10455420;28;20041;-70
2021/08/19 15:38:42;;;;;;;2.63;1.80;;;;;;;20.35;60.01;99871.78;10456311;28;20056;-71
2021/08/19 15:43:45;;;;;;;2.40;2.17;;;;;;;20.45;59.92;99871.94;10455948;28;20044;-70
2021/08/19 15:48:48;;;;;;;2.30;2.10;;;;;;;20.49;60.14;99873.44;10439376;28;20044;-71
2021/08/19 15:53:53;;;;;;;1.83;1.50;;;;;;;20.36;61.03;99870.84;10456499;28;20376;-71
2021/08/19 15:58:54;;;;;;;2.40;1.80;;;;;;;20.54;59.95;99876.63;10455836;28;20048;-71
2021/08/19 16:03:56;;;;;;;2.50;1.90;;;;;;;20.61;59.83;99877.00;10455079;28;20398;-72
2021/08/19 16:08:57;;;;;;;7.43;2.47;;;;;;;20.46;60.37;99881.66;10455785;28;20049;-71
2021/08/19 16:13:59;;;;;;;3.92;2.03;;;;;;;20.21;61.79;99887.13;10455132;28;20041;-71
2021/08/19 16:19:01;;;;;;;2.40;2.10;;;;;;;20.29;60.92;99884.75;10455331;28;20118;-70
2021/08/19 16:24:04;;;;;;;2.65;2.08;;;;;;;20.29;61.55;99884.75;10455222;28;20111;-70
2021/08/19 16:29:05;;;;;;;2.17;1.90;;;;;;;20.23;60.85;99878.06;10454966;28;20139;-70
2021/08/19 16:34:07;;;;;;;2.83;2.17;;;;;;;20.25;61.55;99880.59;10455273;28;20049;-70
2021/08/19 16:39:09;;;;;;;2.25;1.83;;;;;;;20.40;60.58;99868.75;10455122;28;20045;-70
2021/08/19 16:44:10;;;;;;;1.90;1.70;;;;;;;20.35;60.86;99874.44;10458204;28;20049;-71
2021/08/19 16:49:12;;;;;;;1.90;1.80;;;;;;;20.35;60.86;99876.28;10462250;28;20081;-69
2021/08/19 16:54:17;;;;;;;1.73;1.58;;;;;;;20.36;61.12;99875.28;10491505;22;20040;-76
2021/08/19 16:59:30;;;;;;;1.83;1.70;;;;;;;20.28;60.81;99872.38;10584921;28;20123;-75
2021/08/19 17:04:35;;;;;;;2.75;1.70;;;;;;;20.00;62.43;99877.06;10561054;28;20040;-73
2021/08/19 17:09:41;;;;;;;3.28;2.00;;;;;;;19.91;62.16;99870.56;10578023;28;20036;-72
2021/08/19 17:14:44;;;;;;;2.50;1.75;;;;;;;20.02;61.04;99861.81;10572678;28;20040;-73
2021/08/19 17:19:48;;;;;;;2.72;1.80;;;;;;;19.96;60.90;99862.25;10576595;28;20047;-73
2021/08/19 17:24:54;;;;;;;4.28;2.08;;;;;;;19.78;61.21;99858.25;10578740;28;20552;-73
2021/08/19 17:29:58;;;;;;;4.73;1.80;;;;;;;19.67;62.16;99859.03;10575722;28;20070;-73
2021/08/19 17:35:02;;;;;;;3.40;1.60;;;;;;;19.80;61.10;99867.00;10577649;28;20047;-73
2021/08/19 17:40:09;;;;;;;3.53;1.42;;;;;;;19.55;62.23;99866.06;10558992;28;20044;-72
2021/08/19 17:45:15;;;;;;;8.35;2.05;;;;;;;19.40;62.80;99864.50;10554564;28;20097;-72
2021/08/19 17:50:19;;;;;;;3.15;1.75;;;;;;;19.51;61.57;99864.56;10552894;28;20134;-73
2021/08/19 17:55:25;;;;;;;1.70;1.60;;;;;;;19.54;61.20;99863.53;10574407;28;20131;-72
2021/08/19 18:00:31;;;;;;;4.32;1.88;;;;;;;19.42;61.44;99867.91;10571346;28;20044;-72
2021/08/19 18:05:36;;;;;;;4.20;1.45;;;;;;;19.37;61.81;99864.72;10569635;28;20092;-71
2021/08/19 18:10:40;;;;;;;2.00;1.63;;;;;;;19.29;62.22;99867.06;10565439;28;20047;-72
2021/08/19 18:15:43;;;;;;;6.68;1.73;;;;;;;19.26;62.26;99869.97;10561394;28;20417;-73
2021/08/19 18:20:46;;;;;;;1.58;1.48;;;;;;;19.14;62.95;99864.53;10560644;28;20044;-72
2021/08/19 18:25:48;;;;;;;2.13;1.80;;;;;;;19.21;63.01;99875.59;10532086;28;20056;-73
2021/08/19 18:30:50;;;;;;;2.92;2.08;;;;;;;19.11;63.83;99879.88;10547600;28;20078;-73
2021/08/19 18:35:52;;;;;;;1.80;1.70;;;;;;;19.04;64.20;99881.28;10534237;28;20044;-73
2021/08/19 18:40:53;;;;;;;2.42;1.60;;;;;;;18.97;64.68;99893.28;10526688;28;20037;-73
2021/08/19 18:45:55;;;;;;;2.17;2.03;;;;;;;18.90;65.00;99892.84;10531777;28;20044;-74
2021/08/19 18:50:59;;;;;;;4.93;1.75;;;;;;;18.89;64.98;99901.81;10530720;28;20076;-73
2021/08/19 18:56:00;;;;;;;2.30;2.00;;;;;;;18.78;65.92;99897.22;10534107;28;20143;-72
2021/08/19 19:01:02;;;;;;;2.35;2.00;;;;;;;18.81;65.82;99904.13;10516787;28;20044;-73
2021/08/19 19:06:04;;;;;;;2.40;2.08;;;;;;;18.79;66.17;99911.38;10484865;28;20094;-73
2021/08/19 19:11:08;;;;;;;3.35;2.03;;;;;;;18.79;66.38;99912.22;10508454;28;20064;-72
2021/08/19 19:16:09;;;;;;;3.72;1.98;;;;;;;18.73;66.24;99903.81;10489098;28;20046;-73
2021/08/19 19:21:11;;;;;;;3.85;2.70;;;;;;;18.42;67.53;99913.81;10528197;28;20051;-72
2021/08/19 19:26:14;;;;;;;3.33;2.20;;;;;;;18.41;67.10;99923.59;10539786;28;20045;-72
2021/08/19 19:31:16;;;;;;;2.65;2.45;;;;;;;18.39;67.33;99920.19;10492330;28;20044;-72
2021/08/19 19:36:21;;;;;;;2.17;1.98;;;;;;;18.31;67.43;99921.63;10499933;28;20071;-73
2021/08/19 19:41:25;;;;;;;2.97;2.60;;;;;;;18.25;67.76;99919.41;10545358;28;20043;-73
2021/08/19 19:46:29;;;;;;;2.30;2.10;;;;;;;18.06;68.57;99927.69;10527110;28;20078;-72
2021/08/19 19:51:34;;;;;;;2.63;2.22;;;;;;;17.94;68.86;99929.34;10511170;28;20059;-72
2021/08/19 19:56:35;;;;;;;5.13;1.85;;;;;;;17.93;69.17;99937.41;10526372;28;20070;-72
2021/08/19 20:01:37;;;;;;;1.95;1.85;;;;;;;18.02;68.61;99945.69;10544745;28;20555;-73
2021/08/19 20:06:40;;;;;;;4.63;2.10;;;;;;;17.87;69.05;99938.66;10525690;28;20052;-73
2021/08/19 20:11:42;;;;;;;3.30;2.20;;;;;;;17.84;68.98;99936.19;10526141;28;20044;-73
2021/08/19 20:16:43;;;;;;;2.20;2.00;;;;;;;17.92;68.73;99936.56;10547528;28;20513;-74
2021/08/19 20:21:45;;;;;;;2.42;2.20;;;;;;;17.90;68.71;99938.47;10554480;28;20048;-73
2021/08/19 20:26:47;;;;;;;1.95;1.85;;;;;;;17.89;68.86;99937.63;10537503;28;20086;-73
2021/08/19 20:31:49;;;;;;;2.30;2.10;;;;;;;18.07;68.06;99938.25;10554528;28;20058;-74
2021/08/19 20:36:51;;;;;;;2.95;2.33;;;;;;;17.92;68.43;99944.53;10553957;28;20040;-73
2021/08/19 20:41:54;;;;;;;2.38;2.00;;;;;;;17.83;68.73;99938.00;10554479;28;20044;-73
2021/08/19 20:46:56;;;;;;;2.03;1.92;;;;;;;17.95;68.46;99936.38;10535409;28;20048;-73
2021/08/19 20:52:01;;;;;;;2.17;2.00;;;;;;;17.95;68.18;99939.03;10535198;28;20127;-73
2021/08/19 20:57:06;;;;;;;2.60;2.40;;;;;;;18.00;68.01;99939.59;10518664;28;20050;-72
2021/08/19 21:02:11;;;;;;;2.47;2.28;;;;;;;18.06;67.64;99941.88;10534478;28;20048;-73
2021/08/19 21:07:15;;;;;;;2.80;2.60;;;;;;;18.05;67.90;99940.16;10534412;28;20048;-73
2021/08/19 21:12:20;;;;;;;2.30;2.10;;;;;;;17.98;68.21;99946.81;10531911;28;20574;-73
2021/08/19 21:17:22;;;;;;;3.20;2.20;;;;;;;17.93;68.17;99946.28;10550050;28;20055;-73
2021/08/19 21:22:23;;;;;;;2.17;2.05;;;;;;;18.00;68.38;99949.38;10548941;28;20054;-73
2021/08/19 21:27:25;;;;;;;2.35;2.15;;;;;;;18.04;68.38;99945.56;10549121;28;20047;-72
2021/08/19 21:32:27;;;;;;;2.95;2.38;;;;;;;17.87;69.06;99949.28;10548788;28;20036;-72
2021/08/19 21:37:28;;;;;;;2.47;2.25;;;;;;;17.89;68.92;99952.72;10549215;28;20047;-73
2021/08/19 21:42:31;;;;;;;2.70;1.95;;;;;;;17.81;69.52;99949.69;10548754;28;20089;-72
2021/08/19 21:47:32;;;;;;;2.42;2.13;;;;;;;17.98;68.61;99951.28;10548321;28;20405;-73
2021/08/19 21:52:34;;;;;;;2.72;2.50;;;;;;;17.90;69.41;99952.63;10531368;28;20044;-73
2021/08/19 21:57:36;;;;;;;3.50;3.20;;;;;;;17.79;69.68;99964.88;10529321;28;20055;-72
2021/08/19 22:02:39;;;;;;;3.47;3.08;;;;;;;17.88;69.19;99956.31;10547536;28;20091;-73
2021/08/19 22:07:41;;;;;;;3.42;2.50;;;;;;;17.96;68.58;99959.34;10528435;28;20048;-72
2021/08/19 22:12:43;;;;;;;2.33;2.15;;;;;;;18.02;68.40;99958.97;10547023;28;20063;-73
2021/08/19 22:17:46;;;;;;;2.28;2.08;;;;;;;17.94;68.96;99955.94;10528043;28;20056;-72
2021/08/19 22:22:47;;;;;;;2.22;2.03;;;;;;;18.05;68.60;99953.44;10528200;28;20052;-72
2021/08/19 22:27:50;;;;;;;2.97;2.00;;;;;;;18.21;67.40;99955.97;10548757;28;20104;-72
2021/08/19 22:32:51;;;;;;;2.30;2.10;;;;;;;18.21;67.59;99952.47;10548111;28;20439;-72
2021/08/19 22:37:54;;;;;;;2.83;2.22;;;;;;;18.25;67.76;99957.50;10546945;28;20105;-73
2021/08/19 22:42:55;;;;;;;2.10;2.00;;;;;;;18.25;67.88;99960.16;10548067;28;20054;-73
2021/08/19 22:47:57;;;;;;;2.17;1.88;;;;;;;18.24;67.97;99957.56;10529628;28;20051;-72
2021/08/19 23:26:53;;;;;;;2.38;2.00;;;;;;;18.33;67.43;99970.31;10500968;28;20036;-73
2021/08/19 23:31:55;;;;;;;2.20;1.80;;;;;;;18.53;66.81;99971.66;10499523;28;20040;-73
2021/08/19 23:36:57;;;;;;;2.40;1.92;;;;;;;18.49;66.61;99973.66;10483933;28;20121;-73
2021/08/19 23:41:59;;;;;;;2.10;1.90;;;;;;;18.35;67.93;99971.91;10501060;28;20064;-72
2021/08/19 23:47:04;;;;;;;2.42;1.98;;;;;;;18.44;67.14;99973.13;10499997;28;20052;-73
2021/08/19 23:52:07;;;;;;;1.85;1.65;;;;;;;18.39;67.86;99975.22;10499207;28;20123;-73
2021/08/19 23:57:09;;;;;;;1.73;1.63;;;;;;;18.43;67.37;99976.72;10499721;28;20048;-73
